Time;durP1;ratioP1;P1;durP2;ratioP2;P2;SDS_P1;SDS_P2;PMS_P1;PMS_P2;Temp;Humidity;BMP_temperature;BMP_pressure;BME280_temperature;BME280_humidity;BME280_pressure;Samples;Min_cycle;Max_cycle;Signal;HPM_P1;HPM_P2
2022/11/20 00:04:04;;;;;;;2.70;2.15;;;18.70;55.90;;;;;;10489063;28;20041;-28
2022/11/20 00:09:06;;;;;;;4.05;2.30;;;18.60;55.90;;;;;;10459919;28;20136;-28
2022/11/20 00:14:11;;;;;;;3.55;2.65;;;18.70;55.80;;;;;;10483710;28;20048;-30
2022/11/20 00:19:12;;;;;;;4.53;2.38;;;18.70;55.60;;;;;;10484460;28;20474;-34
2022/11/20 00:24:14;;;;;;;2.60;2.40;;;18.60;55.30;;;;;;10470575;28;20488;-34
2022/11/20 00:29:18;;;;;;;2.25;2.05;;;18.60;55.30;;;;;;10479845;28;20158;-28
2022/11/20 00:34:19;;;;;;;4.75;2.45;;;18.50;54.90;;;;;;10478379;28;20110;-28
2022/11/20 00:39:21;;;;;;;2.83;2.25;;;18.50;55.00;;;;;;10481919;28;20102;-29
2022/11/20 00:44:24;;;;;;;3.50;2.22;;;18.50;54.90;;;;;;10468939;28;20135;-29
2022/11/20 00:49:26;;;;;;;4.28;2.30;;;18.40;54.90;;;;;;10467693;28;20834;-27
2022/11/20 00:54:28;;;;;;;2.42;2.20;;;18.40;55.00;;;;;;10477557;28;21425;-29
2022/11/20 00:59:31;;;;;;;3.45;2.22;;;18.40;54.70;;;;;;10474066;28;20134;-29
2022/11/20 01:04:33;;;;;;;3.13;1.98;;;18.40;54.70;;;;;;10480080;28;20048;-29
2022/11/20 01:09:35;;;;;;;3.13;2.60;;;18.40;54.80;;;;;;10486847;28;20041;-30
2022/11/20 01:14:38;;;;;;;3.00;2.30;;;18.40;54.80;;;;;;10491780;28;20072;-28
2022/11/20 01:19:40;;;;;;;4.18;2.40;;;18.30;54.40;;;;;;10483051;28;20068;-28
2022/11/20 01:24:42;;;;;;;2.83;2.00;;;18.30;54.50;;;;;;10491893;28;20139;-28
2022/11/20 01:29:45;;;;;;;3.13;2.13;;;18.30;54.60;;;;;;10494351;28;20044;-27
2022/11/20 01:34:47;;;;;;;3.90;2.33;;;18.30;54.50;;;;;;10483191;28;20101;-28
2022/11/20 01:39:49;;;;;;;4.63;2.55;;;18.30;54.90;;;;;;10486128;28;20106;-31
2022/11/20 01:44:55;;;;;;;3.50;2.50;;;18.20;54.80;;;;;;10489356;28;20053;-27
2022/11/20 01:50:02;;;;;;;5.55;2.55;;;18.20;54.10;;;;;;10483694;28;20049;-27
2022/11/20 01:55:08;;;;;;;3.53;2.17;;;18.20;54.10;;;;;;10487037;28;20129;-29
2022/11/20 02:00:14;;;;;;;4.50;2.40;;;18.10;54.30;;;;;;10486322;28;20048;-27
2022/11/20 02:05:23;;;;;;;3.10;2.33;;;18.10;54.10;;;;;;10485094;28;20047;-30
2022/11/20 02:10:25;;;;;;;4.45;2.40;;;18.10;54.30;;;;;;10480881;28;20040;-30
2022/11/20 02:15:28;;;;;;;3.38;2.38;;;18.10;54.20;;;;;;10485832;28;20048;-30
2022/11/20 02:20:30;;;;;;;2.67;2.17;;;18.10;54.20;;;;;;10470119;28;20565;-29
2022/11/20 02:25:34;;;;;;;2.50;2.30;;;18.10;54.20;;;;;;10482073;28;20051;-30
2022/11/20 02:30:36;;;;;;;3.25;2.60;;;18.00;54.00;;;;;;10489545;28;20156;-29
2022/11/20 02:35:44;;;;;;;2.45;1.85;;;18.10;54.00;;;;;;10473169;28;20139;-33
2022/11/20 02:40:47;;;;;;;2.55;2.13;;;18.00;54.20;;;;;;10485768;28;20129;-33
2022/11/20 02:45:49;;;;;;;2.75;2.30;;;18.00;54.20;;;;;;10474987;28;20122;-33
2022/11/20 02:50:51;;;;;;;3.03;2.10;;;17.90;53.80;;;;;;10482419;28;20129;-32
2022/11/20 02:55:54;;;;;;;3.23;2.10;;;17.90;53.80;;;;;;10490899;28;20471;-27
2022/11/20 03:00:56;;;;;;;2.78;2.35;;;17.90;54.00;;;;;;10487662;28;20051;-32
2022/11/20 03:06:00;;;;;;;4.87;2.37;;;17.90;54.00;;;;;;10492383;28;20158;-26
2022/11/20 03:11:07;;;;;;;2.55;1.90;;;17.80;53.40;;;;;;10474900;28;20574;-27
2022/11/20 03:16:11;;;;;;;4.45;2.75;;;17.80;53.90;;;;;;10482892;28;20129;-29
2022/11/20 03:21:14;;;;;;;2.78;1.92;;;17.80;53.70;;;;;;10484275;28;20405;-34
2022/11/20 03:26:19;;;;;;;3.35;2.60;;;17.80;53.90;;;;;;10491122;28;20044;-33
2022/11/20 03:31:23;;;;;;;4.45;2.45;;;17.80;53.70;;;;;;10477373;28;20144;-26
2022/11/20 03:36:25;;;;;;;3.22;2.25;;;17.80;53.80;;;;;;10482426;28;20581;-31
2022/11/20 03:41:30;;;;;;;3.10;1.75;;;17.80;53.30;;;;;;10488357;28;20052;-28
2022/11/20 03:46:32;;;;;;;3.17;2.33;;;17.70;53.20;;;;;;10472396;28;20455;-29
2022/11/20 03:51:36;;;;;;;3.33;2.05;;;17.70;53.60;;;;;;10483475;28;20145;-28
2022/11/20 03:56:40;;;;;;;2.95;2.30;;;17.70;53.40;;;;;;10489366;28;20094;-29
2022/11/20 04:01:41;;;;;;;2.47;2.22;;;17.70;53.40;;;;;;10475716;28;20064;-29
2022/11/20 04:06:43;;;;;;;2.40;2.10;;;17.70;53.50;;;;;;10482500;28;20124;-32
2022/11/20 04:11:46;;;;;;;2.40;2.05;;;17.60;53.40;;;;;;10488027;28;20037;-27
2022/11/20 04:16:48;;;;;;;3.17;2.20;;;17.70;53.30;;;;;;10478624;28;20044;-29
2022/11/20 04:21:50;;;;;;;3.05;2.30;;;17.60;53.10;;;;;;10479090;28;20455;-28
2022/11/20 04:26:53;;;;;;;4.45;2.42;;;17.60;53.70;;;;;;10475483;28;20430;-29
2022/11/20 04:31:55;;;;;;;2.20;1.95;;;17.60;53.10;;;;;;10483729;28;20044;-31
2022/11/20 04:36:57;;;;;;;3.70;2.50;;;17.60;53.30;;;;;;10482950;28;20068;-27
2022/11/20 04:47:20;;;;;;;2.60;2.03;;;17.60;53.40;;;;;;10470974;28;20456;-28
2022/11/20 04:52:21;;;;;;;3.73;2.83;;;17.50;53.00;;;;;;10480073;28;20151;-29
2022/11/20 04:57:25;;;;;;;3.37;2.20;;;17.50;53.40;;;;;;10478081;28;20106;-28
2022/11/20 05:02:26;;;;;;;2.70;2.45;;;17.50;53.20;;;;;;10481459;28;20135;-34
2022/11/20 05:07:28;;;;;;;3.72;2.17;;;17.50;53.10;;;;;;10482738;28;20098;-27
2022/11/20 05:12:32;;;;;;;2.57;2.23;;;17.40;53.10;;;;;;10479168;28;20052;-26
2022/11/20 05:17:34;;;;;;;2.60;2.15;;;17.40;52.90;;;;;;10478895;28;20124;-29
2022/11/20 05:22:36;;;;;;;2.13;1.88;;;17.40;52.90;;;;;;10479046;28;20097;-31
2022/11/20 05:27:39;;;;;;;4.73;2.23;;;17.40;52.90;;;;;;10484669;28;20048;-31
2022/11/20 05:32:41;;;;;;;2.72;2.20;;;17.40;52.60;;;;;;10480676;28;20553;-28
2022/11/20 05:37:43;;;;;;;3.20;2.23;;;17.50;52.80;;;;;;10484649;28;20172;-29
2022/11/20 05:42:46;;;;;;;3.08;2.13;;;17.60;52.50;;;;;;10475475;28;20044;-29
2022/11/20 05:47:48;;;;;;;2.90;2.03;;;17.80;52.20;;;;;;10483802;28;20545;-31
2022/11/20 05:52:50;;;;;;;2.63;2.15;;;17.90;52.20;;;;;;10471525;28;20477;-28
2022/11/20 05:57:53;;;;;;;3.67;2.28;;;18.00;52.20;;;;;;10480253;28;20060;-28
2022/11/20 06:02:55;;;;;;;2.30;2.10;;;18.00;52.20;;;;;;10477809;28;20052;-28
2022/11/20 06:07:57;;;;;;;2.23;2.03;;;18.00;52.10;;;;;;10488281;28;20127;-31
2022/11/20 06:13:00;;;;;;;2.13;1.83;;;18.00;52.10;;;;;;10482610;28;20452;-30
2022/11/20 06:18:02;;;;;;;2.35;2.15;;;18.10;52.00;;;;;;10490963;28;20119;-29
2022/11/20 06:23:04;;;;;;;3.25;2.30;;;18.10;52.20;;;;;;10492493;28;20451;-29
2022/11/20 06:28:07;;;;;;;2.30;2.10;;;18.00;52.50;;;;;;10492579;28;20076;-29
2022/11/20 06:33:09;;;;;;;2.58;2.20;;;18.10;52.30;;;;;;10489448;28;20084;-30
2022/11/20 06:38:11;;;;;;;3.13;2.28;;;18.10;52.30;;;;;;10477281;28;20045;-33
2022/11/20 06:43:14;;;;;;;2.17;1.90;;;18.10;52.20;;;;;;10471718;28;20052;-31
2022/11/20 06:48:16;;;;;;;2.67;2.00;;;18.10;52.30;;;;;;10482639;28;20067;-29
2022/11/20 06:53:18;;;;;;;2.40;2.10;;;18.10;52.30;;;;;;10488240;28;20052;-28
2022/11/20 06:58:21;;;;;;;2.58;2.00;;;18.10;52.30;;;;;;10487248;28;20064;-34
2022/11/20 07:15:30;;;;;;;3.08;1.85;;;18.10;51.80;;;;;;10541171;27;20135;-32
2022/11/20 07:20:32;;;;;;;3.95;2.38;;;18.10;52.30;;;;;;10574905;28;20102;-29
2022/11/20 07:25:35;;;;;;;3.08;2.00;;;18.10;52.20;;;;;;10560572;28;20084;-27
2022/11/20 07:30:38;;;;;;;4.95;2.08;;;18.20;52.10;;;;;;10555788;28;20726;-27
2022/11/20 07:35:40;;;;;;;4.82;2.13;;;18.10;52.10;;;;;;10566161;28;20124;-28
2022/11/20 07:40:42;;;;;;;4.28;2.53;;;18.20;52.10;;;;;;10563484;28;20104;-28
2022/11/20 07:45:45;;;;;;;2.40;2.10;;;18.10;52.10;;;;;;10555370;28;20051;-29
2022/11/20 07:50:47;;;;;;;2.97;2.10;;;18.10;52.10;;;;;;10557999;28;20109;-28
2022/11/20 07:55:52;;;;;;;6.43;2.72;;;18.20;52.10;;;;;;10554654;28;20147;-28
2022/11/20 08:00:55;;;;;;;2.80;2.30;;;18.20;52.10;;;;;;10550164;28;20044;-30
2022/11/20 08:05:59;;;;;;;13.43;2.38;;;18.10;52.40;;;;;;10545062;28;20105;-34
2022/11/20 08:16:18;;;;;;;4.72;2.25;;;18.20;52.50;;;;;;10560310;28;20043;-29
2022/11/20 08:21:20;;;;;;;3.38;2.33;;;18.20;52.60;;;;;;10559886;28;20097;-29
2022/11/20 08:26:23;;;;;;;3.35;2.22;;;18.30;52.70;;;;;;10527514;28;20052;-29
2022/11/20 08:31:26;;;;;;;;;;;18.30;52.70;;;;;;10520561;28;20052;-28
2022/11/20 08:36:28;;;;;;;3.90;2.40;;;18.30;52.70;;;;;;10524454;28;19920;-27
2022/11/20 08:41:32;;;;;;;4.18;2.20;;;18.30;52.80;;;;;;10532823;28;20123;-29
2022/11/20 08:46:37;;;;;;;2.53;2.15;;;18.30;52.70;;;;;;10529272;28;20312;-31
2022/11/20 08:51:39;;;;;;;5.25;2.63;;;18.40;52.70;;;;;;10523499;28;20413;-36
2022/11/20 08:56:41;;;;;;;;;;;18.30;53.30;;;;;;10542597;28;20458;-32
2022/11/20 09:01:44;;;;;;;2.90;2.50;;;18.30;52.60;;;;;;10547970;28;19924;-28
2022/11/20 09:06:50;;;;;;;6.65;2.70;;;18.30;53.30;;;;;;10534487;28;20048;-28
2022/11/20 09:11:52;;;;;;;4.32;2.67;;;18.40;53.60;;;;;;10541709;28;20060;-28
2022/11/20 09:16:55;;;;;;;6.20;3.05;;;18.40;53.60;;;;;;10539397;28;20051;-29
2022/11/20 09:21:58;;;;;;;4.97;3.20;;;18.50;53.60;;;;;;10543749;28;20139;-29
2022/11/20 09:27:02;;;;;;;;;;;18.50;53.60;;;;;;10529518;28;20143;-29
2022/11/20 09:32:06;;;;;;;4.03;2.75;;;18.60;53.70;;;;;;10529273;28;19962;-29
2022/11/20 09:37:07;;;;;;;5.72;3.03;;;18.60;53.60;;;;;;10533117;28;20127;-28
2022/11/20 09:42:26;;;;;;;5.55;3.80;;;18.70;53.50;;;;;;10530428;28;20740;-28
2022/11/20 09:47:43;;;;;;;6.55;3.72;;;18.60;53.40;;;;;;10533295;28;20044;-30
2022/11/20 09:52:56;;;;;;;8.00;3.60;;;18.70;53.30;;;;;;10533837;28;20063;-28
2022/11/20 09:58:00;;;;;;;5.93;3.65;;;18.70;53.40;;;;;;10534671;28;20049;-29
2022/11/20 10:03:12;;;;;;;5.63;3.83;;;19.00;52.90;;;;;;10537655;28;20048;-36
2022/11/20 10:08:20;;;;;;;6.22;4.32;;;18.90;52.30;;;;;;10535890;28;20059;-28
2022/11/20 10:13:38;;;;;;;7.28;4.40;;;18.90;52.00;;;;;;10537886;28;20085;-28
2022/11/20 10:18:52;;;;;;;7.63;4.72;;;18.90;51.70;;;;;;10528092;28;20063;-31
2022/11/20 10:24:27;;;;;;;6.50;4.50;;;18.90;51.70;;;;;;10521894;28;20094;-31
2022/11/20 10:29:34;;;;;;;6.22;4.78;;;18.90;51.50;;;;;;10515156;28;20051;-33
2022/11/20 10:34:45;;;;;;;9.35;5.60;;;18.90;51.70;;;;;;10532630;28;20059;-27
2022/11/20 10:39:54;;;;;;;10.47;5.47;;;18.80;52.00;;;;;;10523453;28;20392;-35
2022/11/20 10:45:03;;;;;;;9.98;5.90;;;18.80;52.40;;;;;;10518473;28;20105;-34
2022/11/20 10:50:15;;;;;;;8.23;4.95;;;18.70;52.60;;;;;;10542175;28;20064;-30
2022/11/20 10:55:30;;;;;;;7.80;5.28;;;18.70;52.70;;;;;;10518318;28;20088;-31
2022/11/20 11:00:32;;;;;;;10.00;5.30;;;18.70;52.80;;;;;;10515489;28;20052;-33
2022/11/20 11:05:40;;;;;;;7.10;4.93;;;18.70;52.90;;;;;;10515997;28;20464;-30
2022/11/20 11:10:47;;;;;;;9.98;5.72;;;18.70;52.90;;;;;;10527542;28;20491;-31
2022/11/20 11:15:49;;;;;;;8.07;4.93;;;18.80;52.80;;;;;;10528368;28;20188;-30
2022/11/20 11:20:53;;;;;;;7.22;4.63;;;18.80;53.00;;;;;;10536997;28;20121;-30
2022/11/20 11:25:59;;;;;;;7.40;4.40;;;18.80;52.90;;;;;;10521483;28;20494;-31
2022/11/20 11:31:01;;;;;;;10.98;5.50;;;18.80;52.80;;;;;;10523161;28;20461;-28
2022/11/20 11:36:17;;;;;;;7.38;5.03;;;18.90;53.00;;;;;;10535369;28;20139;-30
2022/11/20 11:41:23;;;;;;;7.43;4.70;;;18.90;52.90;;;;;;10524521;28;20135;-30
2022/11/20 11:46:32;;;;;;;8.30;4.97;;;19.10;54.20;;;;;;10515646;28;20048;-30
2022/11/20 11:51:40;;;;;;;9.20;4.80;;;19.00;53.10;;;;;;10525164;28;20036;-32
2022/11/20 11:56:42;;;;;;;10.02;5.18;;;18.80;53.10;;;;;;10524080;28;20052;-30
2022/11/20 12:01:47;;;;;;;;;;;18.80;53.30;;;;;;10523845;28;20109;-30
2022/11/20 12:06:58;;;;;;;8.82;5.05;;;18.80;53.50;;;;;;10531036;28;20422;-31
2022/11/20 12:12:08;;;;;;;6.97;4.95;;;18.70;53.70;;;;;;10532050;28;20104;-29
2022/11/20 12:17:12;;;;;;;10.90;4.72;;;18.70;53.80;;;;;;10527859;28;20048;-28
2022/11/20 12:22:26;;;;;;;10.02;5.10;;;18.60;53.70;;;;;;10516532;28;20136;-30
2022/11/20 12:27:58;;;;;;;10.65;5.68;;;18.60;53.80;;;;;;10532041;28;20470;-31
2022/11/20 12:33:37;;;;;;;7.68;5.35;;;18.60;53.70;;;;;;10528686;28;20052;-28
2022/11/20 12:39:09;;;;;;;8.35;5.63;;;18.60;53.60;;;;;;10513116;28;20732;-35
2022/11/20 12:50:03;;;;;;;6.97;4.75;;;18.60;53.80;;;;;;10433683;28;20087;-35
2022/11/20 12:55:26;;;;;;;15.38;5.75;;;18.60;53.70;;;;;;10513165;28;20066;-31
2022/11/20 13:00:28;;;;;;;11.02;6.70;;;18.50;53.90;;;;;;10527167;28;20435;-28
2022/11/20 13:05:44;;;;;;;12.20;6.83;;;18.50;53.90;;;;;;10535833;28;20111;-31
2022/11/20 13:10:52;;;;;;;10.40;6.22;;;18.60;54.00;;;;;;10531271;28;20681;-30
2022/11/20 13:16:01;;;;;;;9.50;6.32;;;18.50;54.00;;;;;;10531486;28;20136;-30
2022/11/20 13:21:03;;;;;;;12.60;7.32;;;18.50;54.10;;;;;;10541308;28;20051;-29
2022/11/20 13:26:15;;;;;;;10.90;6.88;;;18.50;54.20;;;;;;10532017;28;20039;-29
2022/11/20 13:31:31;;;;;;;9.65;6.35;;;18.50;54.20;;;;;;10517398;28;20716;-29
2022/11/20 13:36:34;;;;;;;11.48;6.80;;;18.50;54.10;;;;;;10516213;28;20058;-31
2022/11/20 13:41:39;;;;;;;12.63;5.95;;;18.60;54.00;;;;;;10531302;28;20445;-31
2022/11/20 13:46:44;;;;;;;10.32;6.95;;;18.60;54.00;;;;;;10530261;28;20059;-31
2022/11/20 13:51:48;;;;;;;10.57;6.45;;;18.60;54.00;;;;;;10528916;28;20052;-29
2022/11/20 13:57:03;;;;;;;13.05;6.43;;;18.60;53.90;;;;;;10531735;28;20571;-30
2022/11/20 14:02:12;;;;;;;13.00;6.70;;;18.60;54.00;;;;;;10522298;28;20060;-30
2022/11/20 14:07:15;;;;;;;13.15;6.20;;;18.60;54.20;;;;;;10535718;28;20559;-28
2022/11/20 14:12:20;;;;;;;11.65;6.70;;;18.60;54.30;;;;;;10515459;28;20488;-30
2022/11/20 14:17:25;;;;;;;14.18;6.78;;;18.60;54.40;;;;;;10528281;28;20044;-31
2022/11/20 14:22:28;;;;;;;13.10;6.53;;;18.60;54.50;;;;;;10525212;28;20048;-27
2022/11/20 14:27:36;;;;;;;12.80;6.38;;;18.60;54.60;;;;;;10527332;28;20131;-29
2022/11/20 14:32:38;;;;;;;7.93;5.40;;;18.60;54.40;;;;;;10530777;28;20051;-30
2022/11/20 14:37:42;;;;;;;8.48;5.78;;;18.60;54.40;;;;;;10519481;28;20127;-30
2022/11/20 14:42:45;;;;;;;11.32;5.82;;;18.60;54.70;;;;;;10526580;28;20097;-29
2022/11/20 14:47:49;;;;;;;10.05;5.93;;;18.60;54.80;;;;;;10539402;28;20048;-30
2022/11/20 14:52:52;;;;;;;12.57;6.93;;;18.70;55.00;;;;;;10521024;28;20100;-29
2022/11/20 14:57:58;;;;;;;8.63;5.90;;;18.70;55.00;;;;;;10527875;28;20044;-29
2022/11/20 15:03:00;;;;;;;8.50;5.97;;;18.70;54.80;;;;;;10526204;28;20093;-32
2022/11/20 15:08:08;;;;;;;8.35;5.40;;;18.70;54.90;;;;;;10510273;28;20138;-30
2022/11/20 15:13:15;;;;;;;22.48;5.50;;;18.70;54.90;;;;;;10522766;28;20048;-32
2022/11/20 15:18:21;;;;;;;7.13;5.10;;;18.70;54.90;;;;;;10514842;28;20048;-30
2022/11/20 15:23:24;;;;;;;7.97;5.85;;;18.80;55.00;;;;;;10526222;28;20117;-30
2022/11/20 15:28:31;;;;;;;8.98;5.30;;;18.80;55.10;;;;;;10522527;28;20476;-30
2022/11/20 15:33:34;;;;;;;8.93;5.10;;;18.80;55.10;;;;;;10527187;28;20051;-28
2022/11/20 15:38:36;;;;;;;8.25;5.22;;;18.80;55.20;;;;;;10526677;28;20072;-35
2022/11/20 15:43:39;;;;;;;8.05;4.95;;;18.80;55.20;;;;;;10531159;28;20078;-32
2022/11/20 15:48:44;;;;;;;9.90;4.93;;;18.80;55.30;;;;;;10528050;28;20522;-30
2022/11/20 15:53:47;;;;;;;6.78;4.53;;;18.80;55.40;;;;;;10528610;28;20052;-32
2022/11/20 15:58:50;;;;;;;;;;;18.80;55.40;;;;;;10538639;28;20040;-30
2022/11/20 16:03:52;;;;;;;8.75;5.20;;;18.80;55.50;;;;;;10539853;28;20061;-30
2022/11/20 16:08:54;;;;;;;8.30;5.35;;;18.80;55.50;;;;;;10533247;28;20550;-29
2022/11/20 16:19:17;;;;;;;8.10;4.60;;;18.80;55.50;;;;;;10533929;28;20147;-30
2022/11/20 16:24:19;;;;;;;7.03;4.43;;;18.80;55.50;;;;;;10530940;28;20048;-35
2022/11/20 16:29:22;;;;;;;5.35;3.97;;;18.90;55.30;;;;;;10523966;28;20066;-31
2022/11/20 16:34:24;;;;;;;5.65;4.07;;;18.90;55.30;;;;;;10531567;28;20131;-30
2022/11/20 16:39:26;;;;;;;10.00;4.25;;;19.00;55.10;;;;;;10532544;28;20044;-31
2022/11/20 16:44:29;;;;;;;5.68;4.28;;;19.00;55.00;;;;;;10518787;28;20048;-30
2022/11/20 16:49:32;;;;;;;6.28;3.90;;;19.00;54.90;;;;;;10533382;28;20047;-29
2022/11/20 16:54:33;;;;;;;11.43;3.90;;;18.90;55.10;;;;;;10528137;28;20059;-27
2022/11/20 16:59:37;;;;;;;7.88;3.90;;;18.90;55.00;;;;;;10521417;28;20131;-31
2022/11/20 17:04:38;;;;;;;6.18;3.58;;;18.90;54.90;;;;;;10526056;28;20048;-29
2022/11/20 17:09:40;;;;;;;6.43;4.28;;;18.90;54.80;;;;;;10533544;28;20122;-29
2022/11/20 17:14:44;;;;;;;6.68;4.30;;;18.80;54.90;;;;;;10533998;28;20120;-29
2022/11/20 17:19:45;;;;;;;8.25;3.75;;;18.70;54.80;;;;;;10536775;28;20098;-30
2022/11/20 17:24:47;;;;;;;7.88;5.05;;;18.80;54.80;;;;;;10526876;28;20051;-31
2022/11/20 17:29:51;;;;;;;15.55;6.80;;;18.80;55.30;;;;;;10520720;28;20123;-31
2022/11/20 17:34:53;;;;;;;16.45;8.65;;;18.80;55.60;;;;;;10532426;28;20047;-31
2022/11/20 17:39:54;;;;;;;21.08;9.05;;;18.80;55.90;;;;;;10534836;28;20044;-31
2022/11/20 17:44:58;;;;;;;22.83;8.90;;;18.80;55.90;;;;;;10526910;28;20454;-30
2022/11/20 17:50:00;;;;;;;24.42;9.60;;;18.80;56.10;;;;;;10528691;28;20571;-31
2022/11/20 17:55:02;;;;;;;19.08;9.73;;;18.70;56.00;;;;;;10520895;28;20063;-34
2022/11/20 18:00:07;;;;;;;24.60;10.15;;;18.70;56.10;;;;;;10523653;28;20112;-30
2022/11/20 18:05:09;;;;;;;21.00;8.70;;;18.70;56.20;;;;;;10524269;28;20048;-29
2022/11/20 18:10:11;;;;;;;;;;;18.60;56.10;;;;;;10535332;28;20044;-31
2022/11/20 18:15:14;;;;;;;18.67;7.63;;;18.60;56.30;;;;;;10527444;28;19958;-30
2022/11/20 18:20:17;;;;;;;42.10;23.65;;;18.60;56.30;;;;;;10527408;28;20063;-29
2022/11/20 18:25:19;;;;;;;28.38;13.00;;;18.60;56.30;;;;;;10524351;28;20453;-29
2022/11/20 18:30:22;;;;;;;76.93;43.00;;;18.60;56.20;;;;;;10537278;28;20054;-30
2022/11/20 18:35:27;;;;;;;96.95;57.42;;;18.60;56.10;;;;;;10542391;28;20048;-29
2022/11/20 18:40:29;;;;;;;95.22;59.90;;;18.60;56.00;;;;;;10530829;28;20129;-30
2022/11/20 18:45:33;;;;;;;102.97;65.45;;;18.60;55.90;;;;;;10524711;28;20068;-29
2022/11/20 18:50:34;;;;;;;125.00;79.75;;;18.60;55.90;;;;;;10528153;28;20097;-30
2022/11/20 18:55:36;;;;;;;108.97;72.20;;;18.70;56.10;;;;;;10537931;28;20056;-34
2022/11/20 19:00:40;;;;;;;40.40;25.70;;;18.70;56.10;;;;;;10525638;28;20670;-32
2022/11/20 19:05:42;;;;;;;16.27;8.88;;;18.80;56.00;;;;;;10521075;28;20055;-30
2022/11/20 19:10:44;;;;;;;19.13;7.07;;;18.70;55.30;;;;;;10526259;28;20477;-33
2022/11/20 19:15:47;;;;;;;15.68;7.18;;;16.10;56.60;;;;;;10527738;28;20051;-30
2022/11/20 19:20:49;;;;;;;19.77;3.05;;;15.00;69.20;;;;;;10522672;28;20467;-30
2022/11/20 19:25:51;;;;;;;18.90;9.25;;;13.20;80.30;;;;;;10511351;28;20041;-30
2022/11/20 19:30:54;;;;;;;14.57;4.97;;;14.10;81.70;;;;;;10524163;28;20550;-28
2022/11/20 19:35:57;;;;;;;16.00;3.55;;;13.40;87.60;;;;;;10521681;28;20055;-31
2022/11/20 19:40:59;;;;;;;20.02;4.53;;;12.20;92.70;;;;;;10526912;28;20043;-28
2022/11/20 19:46:02;;;;;;;14.83;4.33;;;11.70;93.90;;;;;;10531509;28;20098;-30
2022/11/20 19:51:09;;;;;;;16.67;4.03;;;11.90;92.90;;;;;;10538172;28;20451;-33
2022/11/20 19:56:11;;;;;;;16.67;2.78;;;12.60;91.20;;;;;;10517833;28;20048;-30
2022/11/20 20:01:16;;;;;;;17.60;3.28;;;12.20;94.30;;;;;;10513269;28;20041;-33
2022/11/20 20:06:20;;;;;;;17.25;3.72;;;11.30;94.60;;;;;;10521815;28;20068;-29
2022/11/20 20:11:25;;;;;;;17.45;2.97;;;12.50;91.10;;;;;;10525210;28;20695;-35
2022/11/20 20:16:29;;;;;;;12.45;3.47;;;12.30;91.20;;;;;;10525218;28;20044;-29
2022/11/20 20:21:32;;;;;;;16.70;3.83;;;13.10;89.20;;;;;;10529382;28;20515;-30
2022/11/20 20:26:34;;;;;;;20.17;2.85;;;12.20;94.40;;;;;;10531321;28;20503;-32
2022/11/20 20:31:37;;;;;;;27.17;4.37;;;11.90;93.70;;;;;;10528132;28;20614;-29
2022/11/20 20:36:39;;;;;;;14.55;2.45;;;11.80;94.90;;;;;;10525441;28;20059;-31
2022/11/20 20:41:42;;;;;;;11.30;2.35;;;13.00;91.70;;;;;;10533511;28;20127;-30
2022/11/20 20:46:45;;;;;;;13.43;2.53;;;12.50;92.40;;;;;;10538549;28;20144;-30
2022/11/20 20:51:47;;;;;;;14.63;2.47;;;11.60;92.00;;;;;;10525697;28;20048;-30
2022/11/20 20:56:51;;;;;;;23.58;3.05;;;12.30;91.70;;;;;;10537651;28;20052;-30
2022/11/20 21:01:54;;;;;;;9.63;2.42;;;12.10;92.60;;;;;;10525089;28;20049;-28
2022/11/20 21:06:56;;;;;;;16.58;2.83;;;13.20;92.00;;;;;;10523431;28;20044;-29
2022/11/20 21:11:58;;;;;;;21.48;3.80;;;12.20;91.80;;;;;;10522202;28;20067;-30
2022/11/20 21:17:01;;;;;;;17.87;2.67;;;11.50;94.10;;;;;;10528171;28;20476;-30
2022/11/20 21:22:03;;;;;;;11.90;2.25;;;12.30;93.60;;;;;;10533033;28;20560;-28
2022/11/20 21:27:06;;;;;;;24.00;3.27;;;13.30;90.80;;;;;;10532090;28;20139;-30
2022/11/20 21:32:09;;;;;;;14.23;2.25;;;11.90;95.10;;;;;;10530471;28;20478;-29
2022/11/20 21:37:11;;;;;;;11.98;3.40;;;12.80;91.70;;;;;;10526912;28;20485;-35
2022/11/20 21:42:14;;;;;;;13.00;2.10;;;12.40;94.00;;;;;;10528162;28;20066;-34
2022/11/20 21:47:17;;;;;;;6.10;2.30;;;12.10;90.80;;;;;;10519843;28;20046;-30
2022/11/20 21:52:19;;;;;;;15.93;3.05;;;12.20;92.60;;;;;;10533442;28;20044;-30
2022/11/20 21:57:22;;;;;;;11.70;1.93;;;12.50;91.20;;;;;;10535872;28;20079;-31
2022/11/20 22:02:25;;;;;;;29.98;2.58;;;12.30;90.40;;;;;;10533832;28;20051;-28
2022/11/20 22:07:27;;;;;;;20.58;3.20;;;11.70;93.20;;;;;;10523698;28;20056;-30
2022/11/20 22:12:29;;;;;;;6.23;1.97;;;11.80;94.40;;;;;;10524785;28;20485;-29
2022/11/20 22:22:52;;;;;;;8.88;1.38;;;12.00;87.20;;;;;;10525684;28;20079;-31
2022/11/20 22:27:54;;;;;;;8.40;1.63;;;10.40;80.30;;;;;;10540629;28;20040;-31
2022/11/20 22:32:58;;;;;;;10.93;2.07;;;11.60;93.40;;;;;;10527674;28;20568;-33
2022/11/20 22:37:59;;;;;;;9.38;1.63;;;11.10;95.40;;;;;;10545770;28;20051;-29
2022/11/20 22:43:01;;;;;;;13.55;2.45;;;12.10;95.40;;;;;;10525136;28;20478;-32
2022/11/20 22:48:05;;;;;;;9.13;1.85;;;11.70;92.50;;;;;;10514734;28;20055;-30
2022/11/20 22:53:08;;;;;;;6.82;1.52;;;11.50;95.60;;;;;;10533500;28;20071;-30
2022/11/20 22:58:10;;;;;;;4.95;1.50;;;12.10;93.20;;;;;;10512285;28;20561;-30
2022/11/20 23:03:13;;;;;;;7.70;2.40;;;12.40;93.80;;;;;;10532227;28;20044;-30
2022/11/20 23:08:15;;;;;;;8.48;2.33;;;13.00;92.70;;;;;;10540917;28;20546;-33
2022/11/20 23:13:17;;;;;;;12.30;1.63;;;13.10;87.40;;;;;;10540076;28;20087;-36
2022/11/20 23:18:20;;;;;;;11.93;1.57;;;12.10;87.40;;;;;;10522497;28;20094;-32
2022/11/20 23:23:22;;;;;;;17.20;3.88;;;11.60;93.90;;;;;;10512930;28;20130;-29
2022/11/20 23:28:24;;;;;;;9.97;1.30;;;13.50;91.30;;;;;;10528748;28;20044;-30
2022/11/20 23:33:27;;;;;;;4.47;1.40;;;16.50;66.90;;;;;;10529869;28;20072;-30
2022/11/20 23:38:29;;;;;;;3.30;1.58;;;16.60;64.30;;;;;;10534182;28;20075;-30
2022/11/20 23:43:31;;;;;;;4.47;2.57;;;17.00;63.60;;;;;;10538344;28;20048;-27
2022/11/20 23:48:37;;;;;;;4.72;1.10;;;17.20;62.30;;;;;;10534160;28;20120;-32
2022/11/20 23:53:39;;;;;;;4.20;1.30;;;17.70;60.80;;;;;;10527524;28;20128;-30
2022/11/20 23:58:41;;;;;;;4.30;1.08;;;17.90;60.10;;;;;;10528590;28;20040;-31
